sensor_id;sensor_type;location;lat;lon;timestamp;P1;durP1;ratioP1;P2;durP2;ratioP2
48285;SDS011;34102;47.716;10.296;2024-02-23T03:47:53;0.85;;;0.00;;
48285;SDS011;34102;47.716;10.296;2024-02-23T03:50:20;0.20;;;0.00;;
48285;SDS011;34102;47.716;10.296;2024-02-23T03:52:47;0.20;;;0.00;;
48285;SDS011;34102;47.716;10.296;2024-02-23T03:55:12;0.75;;;0.05;;
48285;SDS011;34102;47.716;10.296;2024-02-23T03:57:37;0.30;;;0.00;;
48285;SDS011;34102;47.716;10.296;2024-02-23T04:00:03;0.88;;;0.10;;
48285;SDS011;34102;47.716;10.296;2024-02-23T04:02:38;0.20;;;0.00;;
48285;SDS011;34102;47.716;10.296;2024-02-23T04:05:03;0.17;;;0.00;;
48285;SDS011;34102;47.716;10.296;2024-02-23T04:07:29;0.68;;;0.00;;
48285;SDS011;34102;47.716;10.296;2024-02-23T04:09:54;0.68;;;0.03;;
48285;SDS011;34102;47.716;10.296;2024-02-23T04:12:23;1.92;;;0.10;;
48285;SDS011;34102;47.716;10.296;2024-02-23T04:14:48;0.32;;;0.00;;
48285;SDS011;34102;47.716;10.296;2024-02-23T04:17:14;0.80;;;0.00;;
48285;SDS011;34102;47.716;10.296;2024-02-23T04:19:42;0.20;;;0.00;;
48285;SDS011;34102;47.716;10.296;2024-02-23T04:22:08;1.75;;;0.30;;
48285;SDS011;34102;47.716;10.296;2024-02-23T04:24:37;0.65;;;0.00;;
48285;SDS011;34102;47.716;10.296;2024-02-23T04:27:03;0.65;;;0.00;;
48285;SDS011;34102;47.716;10.296;2024-02-23T04:29:29;1.92;;;0.10;;
48285;SDS011;34102;47.716;10.296;2024-02-23T04:31:54;1.13;;;0.17;;
48285;SDS011;34102;47.716;10.296;2024-02-23T04:34:20;1.38;;;0.10;;
48285;SDS011;34102;47.716;10.296;2024-02-23T04:36:45;0.52;;;0.10;;
48285;SDS011;34102;47.716;10.296;2024-02-23T04:39:11;1.27;;;0.10;;
48285;SDS011;34102;47.716;10.296;2024-02-23T04:41:37;1.77;;;0.20;;
48285;SDS011;34102;47.716;10.296;2024-02-23T04:44:03;0.75;;;0.10;;
48285;SDS011;34102;47.716;10.296;2024-02-23T04:46:28;1.60;;;0.10;;
48285;SDS011;34102;47.716;10.296;2024-02-23T04:48:54;2.35;;;0.10;;
48285;SDS011;34102;47.716;10.296;2024-02-23T04:51:21;0.52;;;0.10;;
48285;SDS011;34102;47.716;10.296;2024-02-23T04:53:48;1.67;;;0.10;;
48285;SDS011;34102;47.716;10.296;2024-02-23T04:56:14;2.13;;;0.00;;
48285;SDS011;34102;47.716;10.296;2024-02-23T04:58:39;1.17;;;0.10;;
48285;SDS011;34102;47.716;10.296;2024-02-23T05:01:06;1.20;;;0.40;;
48285;SDS011;34102;47.716;10.296;2024-02-23T05:03:31;0.55;;;0.10;;
48285;SDS011;34102;47.716;10.296;2024-02-23T05:05:57;1.48;;;0.10;;
48285;SDS011;34102;47.716;10.296;2024-02-23T05:08:23;0.47;;;0.10;;
48285;SDS011;34102;47.716;10.296;2024-02-23T05:10:50;2.72;;;0.30;;
48285;SDS011;34102;47.716;10.296;2024-02-23T05:13:16;1.55;;;0.08;;
48285;SDS011;34102;47.716;10.296;2024-02-23T05:15:41;1.50;;;0.10;;
48285;SDS011;34102;47.716;10.296;2024-02-23T05:18:06;2.45;;;0.10;;
48285;SDS011;34102;47.716;10.296;2024-02-23T05:20:32;0.30;;;0.10;;
48285;SDS011;34102;47.716;10.296;2024-02-23T05:22:57;0.30;;;0.10;;
48285;SDS011;34102;47.716;10.296;2024-02-23T05:25:22;0.75;;;0.10;;
48285;SDS011;34102;47.716;10.296;2024-02-23T05:27:48;1.35;;;0.00;;
48285;SDS011;34102;47.716;10.296;2024-02-23T05:30:14;1.08;;;0.15;;
48285;SDS011;34102;47.716;10.296;2024-02-23T05:32:40;1.00;;;0.10;;
48285;SDS011;34102;47.716;10.296;2024-02-23T05:35:05;0.43;;;0.10;;
48285;SDS011;34102;47.716;10.296;2024-02-23T05:37:31;1.42;;;0.10;;
48285;SDS011;34102;47.716;10.296;2024-02-23T05:39:56;3.00;;;0.30;;
48285;SDS011;34102;47.716;10.296;2024-02-23T05:42:25;1.80;;;0.10;;
48285;SDS011;34102;47.716;10.296;2024-02-23T05:44:50;1.38;;;0.10;;
48285;SDS011;34102;47.716;10.296;2024-02-23T05:47:15;3.67;;;0.25;;
48285;SDS011;34102;47.716;10.296;2024-02-23T05:49:41;1.65;;;0.10;;
48285;SDS011;34102;47.716;10.296;2024-02-23T05:52:06;0.63;;;0.10;;
48285;SDS011;34102;47.716;10.296;2024-02-23T05:54:31;2.10;;;0.20;;
48285;SDS011;34102;47.716;10.296;2024-02-23T05:56:57;0.93;;;0.08;;
48285;SDS011;34102;47.716;10.296;2024-02-23T05:59:22;0.90;;;0.25;;
48285;SDS011;34102;47.716;10.296;2024-02-23T06:01:51;0.32;;;0.15;;
48285;SDS011;34102;47.716;10.296;2024-02-23T06:04:22;2.28;;;0.10;;
48285;SDS011;34102;47.716;10.296;2024-02-23T06:06:47;2.17;;;0.20;;
48285;SDS011;34102;47.716;10.296;2024-02-23T06:09:12;1.10;;;0.13;;
48285;SDS011;34102;47.716;10.296;2024-02-23T06:11:38;1.55;;;0.10;;
48285;SDS011;34102;47.716;10.296;2024-02-23T06:14:04;0.40;;;0.05;;
48285;SDS011;34102;47.716;10.296;2024-02-23T06:16:30;1.45;;;0.38;;
48285;SDS011;34102;47.716;10.296;2024-02-23T06:18:55;1.98;;;0.38;;
48285;SDS011;34102;47.716;10.296;2024-02-23T06:21:21;4.03;;;1.00;;
48285;SDS011;34102;47.716;10.296;2024-02-23T06:23:46;4.03;;;1.08;;
48285;SDS011;34102;47.716;10.296;2024-02-23T06:26:12;3.85;;;1.20;;
48285;SDS011;34102;47.716;10.296;2024-02-23T06:28:37;4.45;;;0.95;;
48285;SDS011;34102;47.716;10.296;2024-02-23T06:31:04;2.47;;;0.70;;
48285;SDS011;34102;47.716;10.296;2024-02-23T06:33:30;3.08;;;0.70;;
48285;SDS011;34102;47.716;10.296;2024-02-23T06:35:55;2.50;;;0.38;;
48285;SDS011;34102;47.716;10.296;2024-02-23T06:38:21;1.75;;;0.40;;
48285;SDS011;34102;47.716;10.296;2024-02-23T06:40:47;6.78;;;1.52;;
48285;SDS011;34102;47.716;10.296;2024-02-23T06:43:12;2.90;;;1.08;;
48285;SDS011;34102;47.716;10.296;2024-02-23T06:45:37;4.10;;;1.70;;
48285;SDS011;34102;47.716;10.296;2024-02-23T06:48:03;3.45;;;0.85;;
48285;SDS011;34102;47.716;10.296;2024-02-23T06:50:29;2.38;;;0.90;;
48285;SDS011;34102;47.716;10.296;2024-02-23T06:52:54;3.78;;;1.17;;
48285;SDS011;34102;47.716;10.296;2024-02-23T06:55:20;2.40;;;0.52;;
48285;SDS011;34102;47.716;10.296;2024-02-23T06:57:46;2.05;;;0.35;;
48285;SDS011;34102;47.716;10.296;2024-02-23T11:03:05;0.38;;;0.00;;
48285;SDS011;34102;47.716;10.296;2024-02-23T11:05:32;0.30;;;0.10;;
48285;SDS011;34102;47.716;10.296;2024-02-23T11:07:58;0.25;;;0.10;;
48285;SDS011;34102;47.716;10.296;2024-02-23T11:10:23;3.55;;;0.50;;
48285;SDS011;34102;47.716;10.296;2024-02-23T11:12:59;2.70;;;0.22;;
48285;SDS011;34102;47.716;10.296;2024-02-23T11:15:27;2.30;;;0.15;;
48285;SDS011;34102;47.716;10.296;2024-02-23T11:17:53;0.40;;;0.10;;
48285;SDS011;34102;47.716;10.296;2024-02-23T11:20:20;1.05;;;0.05;;
48285;SDS011;34102;47.716;10.296;2024-02-23T11:22:54;0.30;;;0.10;;
48285;SDS011;34102;47.716;10.296;2024-02-23T11:25:20;0.75;;;0.05;;
48285;SDS011;34102;47.716;10.296;2024-02-23T11:27:52;0.65;;;0.10;;
48285;SDS011;34102;47.716;10.296;2024-02-23T11:30:18;0.82;;;0.10;;
48285;SDS011;34102;47.716;10.296;2024-02-23T11:32:45;0.57;;;0.17;;
48285;SDS011;34102;47.716;10.296;2024-02-23T11:35:15;1.33;;;0.10;;
48285;SDS011;34102;47.716;10.296;2024-02-23T11:37:54;0.82;;;0.10;;
48285;SDS011;34102;47.716;10.296;2024-02-23T11:40:27;0.20;;;0.00;;
48285;SDS011;34102;47.716;10.296;2024-02-23T11:42:56;0.55;;;0.00;;
48285;SDS011;34102;47.716;10.296;2024-02-23T11:45:23;1.15;;;0.17;;
48285;SDS011;34102;47.716;10.296;2024-02-23T11:47:50;0.43;;;0.10;;
48285;SDS011;34102;47.716;10.296;2024-02-23T11:50:19;0.57;;;0.35;;
48285;SDS011;34102;47.716;10.296;2024-02-23T11:52:46;0.50;;;0.08;;
48285;SDS011;34102;47.716;10.296;2024-02-23T11:55:11;0.47;;;0.10;;
48285;SDS011;34102;47.716;10.296;2024-02-23T11:57:38;0.45;;;0.03;;
48285;SDS011;34102;47.716;10.296;2024-02-23T12:00:05;0.75;;;0.10;;
48285;SDS011;34102;47.716;10.296;2024-02-23T12:02:54;1.13;;;0.10;;
48285;SDS011;34102;47.716;10.296;2024-02-23T12:05:19;0.30;;;0.08;;
48285;SDS011;34102;47.716;10.296;2024-02-23T12:07:46;1.77;;;0.30;;
48285;SDS011;34102;47.716;10.296;2024-02-23T12:10:18;0.32;;;0.10;;
48285;SDS011;34102;47.716;10.296;2024-02-23T12:12:43;0.10;;;0.00;;
48285;SDS011;34102;47.716;10.296;2024-02-23T12:15:12;0.90;;;0.20;;
48285;SDS011;34102;47.716;10.296;2024-02-23T12:17:46;0.85;;;0.03;;
48285;SDS011;34102;47.716;10.296;2024-02-23T12:20:33;0.20;;;0.05;;
48285;SDS011;34102;47.716;10.296;2024-02-23T12:23:00;0.50;;;0.10;;
48285;SDS011;34102;47.716;10.296;2024-02-23T12:25:26;0.10;;;0.00;;
48285;SDS011;34102;47.716;10.296;2024-02-23T12:27:56;0.30;;;0.03;;
48285;SDS011;34102;47.716;10.296;2024-02-23T12:30:22;3.03;;;0.20;;
48285;SDS011;34102;47.716;10.296;2024-02-23T12:32:47;0.30;;;0.10;;
48285;SDS011;34102;47.716;10.296;2024-02-23T12:35:14;0.80;;;0.10;;
48285;SDS011;34102;47.716;10.296;2024-02-23T12:37:40;0.95;;;0.03;;
48285;SDS011;34102;47.716;10.296;2024-02-23T12:40:09;1.25;;;0.20;;
48285;SDS011;34102;47.716;10.296;2024-02-23T12:42:35;0.35;;;0.20;;
48285;SDS011;34102;47.716;10.296;2024-02-23T12:45:04;1.25;;;0.20;;
48285;SDS011;34102;47.716;10.296;2024-02-23T12:47:29;4.90;;;0.60;;
48285;SDS011;34102;47.716;10.296;2024-02-23T12:49:55;0.40;;;0.10;;
48285;SDS011;34102;47.716;10.296;2024-02-23T12:52:21;0.95;;;0.20;;
48285;SDS011;34102;47.716;10.296;2024-02-23T12:54:47;0.52;;;0.10;;
48285;SDS011;34102;47.716;10.296;2024-02-23T12:57:15;0.80;;;0.10;;
48285;SDS011;34102;47.716;10.296;2024-02-23T12:59:42;0.90;;;0.10;;
48285;SDS011;34102;47.716;10.296;2024-02-23T13:02:07;0.68;;;0.10;;
48285;SDS011;34102;47.716;10.296;2024-02-23T13:04:33;1.15;;;0.20;;
48285;SDS011;34102;47.716;10.296;2024-02-23T13:07:00;1.60;;;0.13;;
48285;SDS011;34102;47.716;10.296;2024-02-23T13:09:26;1.92;;;0.30;;
48285;SDS011;34102;47.716;10.296;2024-02-23T13:11:52;0.40;;;0.10;;
48285;SDS011;34102;47.716;10.296;2024-02-23T13:14:22;0.65;;;0.20;;
48285;SDS011;34102;47.716;10.296;2024-02-23T13:16:49;0.47;;;0.10;;
48285;SDS011;34102;47.716;10.296;2024-02-23T13:19:15;0.10;;;0.00;;
48285;SDS011;34102;47.716;10.296;2024-02-23T13:21:42;0.20;;;0.10;;
48285;SDS011;34102;47.716;10.296;2024-02-23T13:24:08;0.38;;;0.20;;
48285;SDS011;34102;47.716;10.296;2024-02-23T13:26:36;0.40;;;0.10;;
48285;SDS011;34102;47.716;10.296;2024-02-23T13:29:06;0.60;;;0.10;;
48285;SDS011;34102;47.716;10.296;2024-02-23T13:31:36;1.45;;;0.10;;
48285;SDS011;34102;47.716;10.296;2024-02-23T13:34:03;0.63;;;0.10;;
48285;SDS011;34102;47.716;10.296;2024-02-23T13:36:29;0.20;;;0.10;;
48285;SDS011;34102;47.716;10.296;2024-02-23T13:38:55;0.50;;;0.10;;
48285;SDS011;34102;47.716;10.296;2024-02-23T13:41:22;0.50;;;0.10;;
48285;SDS011;34102;47.716;10.296;2024-02-23T13:43:48;2.33;;;0.40;;
48285;SDS011;34102;47.716;10.296;2024-02-23T13:46:14;1.75;;;0.50;;
48285;SDS011;34102;47.716;10.296;2024-02-23T13:48:39;0.40;;;0.25;;
48285;SDS011;34102;47.716;10.296;2024-02-23T13:51:35;3.40;;;0.25;;
48285;SDS011;34102;47.716;10.296;2024-02-23T13:54:00;3.92;;;0.35;;
48285;SDS011;34102;47.716;10.296;2024-02-23T13:56:26;1.90;;;0.10;;
48285;SDS011;34102;47.716;10.296;2024-02-23T13:58:51;0.60;;;0.10;;
48285;SDS011;34102;47.716;10.296;2024-02-23T14:01:17;0.63;;;0.20;;
48285;SDS011;34102;47.716;10.296;2024-02-23T14:03:43;1.30;;;0.10;;
48285;SDS011;34102;47.716;10.296;2024-02-23T14:06:09;2.40;;;0.10;;
48285;SDS011;34102;47.716;10.296;2024-02-23T14:08:34;0.40;;;0.03;;
48285;SDS011;34102;47.716;10.296;2024-02-23T14:11:06;0.35;;;0.05;;
48285;SDS011;34102;47.716;10.296;2024-02-23T14:13:36;1.60;;;0.10;;
48285;SDS011;34102;47.716;10.296;2024-02-23T14:16:04;0.57;;;0.20;;
48285;SDS011;34102;47.716;10.296;2024-02-23T14:18:31;2.17;;;0.20;;
48285;SDS011;34102;47.716;10.296;2024-02-23T14:20:58;0.50;;;0.15;;
48285;SDS011;34102;47.716;10.296;2024-02-23T14:23:25;0.82;;;0.10;;
48285;SDS011;34102;47.716;10.296;2024-02-23T14:25:51;0.90;;;0.10;;
48285;SDS011;34102;47.716;10.296;2024-02-23T14:28:17;0.80;;;0.55;;
48285;SDS011;34102;47.716;10.296;2024-02-23T14:30:42;2.15;;;0.10;;
48285;SDS011;34102;47.716;10.296;2024-02-23T14:33:11;1.15;;;0.10;;
48285;SDS011;34102;47.716;10.296;2024-02-23T14:35:36;0.65;;;0.10;;
48285;SDS011;34102;47.716;10.296;2024-02-23T14:38:04;0.35;;;0.10;;
48285;SDS011;34102;47.716;10.296;2024-02-23T14:40:29;0.50;;;0.00;;
48285;SDS011;34102;47.716;10.296;2024-02-23T14:42:54;3.20;;;0.20;;
48285;SDS011;34102;47.716;10.296;2024-02-23T14:45:20;4.32;;;0.32;;
48285;SDS011;34102;47.716;10.296;2024-02-23T14:47:49;0.85;;;0.43;;
48285;SDS011;34102;47.716;10.296;2024-02-23T14:50:16;0.40;;;0.10;;
48285;SDS011;34102;47.716;10.296;2024-02-23T14:52:43;0.85;;;0.20;;
48285;SDS011;34102;47.716;10.296;2024-02-23T14:55:09;0.25;;;0.10;;
48285;SDS011;34102;47.716;10.296;2024-02-23T14:57:37;1.55;;;0.20;;
48285;SDS011;34102;47.716;10.296;2024-02-23T15:00:08;1.63;;;0.10;;
48285;SDS011;34102;47.716;10.296;2024-02-23T15:02:34;0.98;;;0.10;;
48285;SDS011;34102;47.716;10.296;2024-02-23T15:05:01;0.52;;;0.10;;
48285;SDS011;34102;47.716;10.296;2024-02-23T15:07:28;0.40;;;0.10;;
48285;SDS011;34102;47.716;10.296;2024-02-23T15:09:55;0.40;;;0.17;;
48285;SDS011;34102;47.716;10.296;2024-02-23T15:12:22;0.80;;;0.35;;
48285;SDS011;34102;47.716;10.296;2024-02-23T15:14:54;0.75;;;0.10;;
48285;SDS011;34102;47.716;10.296;2024-02-23T15:17:27;3.50;;;0.28;;
48285;SDS011;34102;47.716;10.296;2024-02-23T15:19:52;3.97;;;0.20;;
48285;SDS011;34102;47.716;10.296;2024-02-23T15:22:19;0.85;;;0.10;;
48285;SDS011;34102;47.716;10.296;2024-02-23T15:24:47;0.25;;;0.15;;
48285;SDS011;34102;47.716;10.296;2024-02-23T15:27:15;1.48;;;0.10;;
48285;SDS011;34102;47.716;10.296;2024-02-23T15:29:43;0.30;;;0.10;;
48285;SDS011;34102;47.716;10.296;2024-02-23T15:32:08;0.20;;;0.10;;
48285;SDS011;34102;47.716;10.296;2024-02-23T15:34:34;1.17;;;0.13;;
48285;SDS011;34102;47.716;10.296;2024-02-23T15:37:01;0.30;;;0.10;;
48285;SDS011;34102;47.716;10.296;2024-02-23T15:39:31;0.98;;;0.20;;
48285;SDS011;34102;47.716;10.296;2024-02-23T15:41:56;1.02;;;0.10;;
48285;SDS011;34102;47.716;10.296;2024-02-23T15:44:22;0.50;;;0.10;;
48285;SDS011;34102;47.716;10.296;2024-02-23T15:46:47;0.82;;;0.50;;
48285;SDS011;34102;47.716;10.296;2024-02-23T15:49:22;1.45;;;0.60;;
48285;SDS011;34102;47.716;10.296;2024-02-23T15:51:49;0.35;;;0.10;;
48285;SDS011;34102;47.716;10.296;2024-02-23T15:54:16;2.17;;;0.30;;
48285;SDS011;34102;47.716;10.296;2024-02-23T15:56:43;1.02;;;0.55;;
48285;SDS011;34102;47.716;10.296;2024-02-23T15:59:09;1.45;;;0.50;;
48285;SDS011;34102;47.716;10.296;2024-02-23T16:01:36;2.35;;;0.60;;
48285;SDS011;34102;47.716;10.296;2024-02-23T16:04:02;2.00;;;0.20;;
48285;SDS011;34102;47.716;10.296;2024-02-23T16:06:29;1.85;;;0.52;;
48285;SDS011;34102;47.716;10.296;2024-02-23T16:09:01;1.58;;;0.30;;
48285;SDS011;34102;47.716;10.296;2024-02-23T16:11:27;1.58;;;0.50;;
48285;SDS011;34102;47.716;10.296;2024-02-23T16:13:54;1.25;;;0.30;;
48285;SDS011;34102;47.716;10.296;2024-02-23T16:16:19;1.75;;;0.40;;
48285;SDS011;34102;47.716;10.296;2024-02-23T16:18:46;2.30;;;0.30;;
48285;SDS011;34102;47.716;10.296;2024-02-23T16:21:13;1.48;;;0.30;;
48285;SDS011;34102;47.716;10.296;2024-02-23T16:23:41;1.45;;;0.40;;
48285;SDS011;34102;47.716;10.296;2024-02-23T16:26:08;0.90;;;0.30;;
48285;SDS011;34102;47.716;10.296;2024-02-23T16:28:34;0.52;;;0.20;;
48285;SDS011;34102;47.716;10.296;2024-02-23T16:30:59;0.82;;;0.30;;
48285;SDS011;34102;47.716;10.296;2024-02-23T16:33:25;0.28;;;0.10;;
48285;SDS011;34102;47.716;10.296;2024-02-23T16:35:52;1.77;;;0.17;;
48285;SDS011;34102;47.716;10.296;2024-02-23T16:38:24;1.33;;;0.20;;
48285;SDS011;34102;47.716;10.296;2024-02-23T16:40:50;0.88;;;0.20;;
48285;SDS011;34102;47.716;10.296;2024-02-23T16:43:15;1.77;;;0.10;;
48285;SDS011;34102;47.716;10.296;2024-02-23T16:45:41;0.93;;;0.20;;
48285;SDS011;34102;47.716;10.296;2024-02-23T16:48:08;2.38;;;0.60;;
48285;SDS011;34102;47.716;10.296;2024-02-23T16:50:41;1.58;;;0.20;;
48285;SDS011;34102;47.716;10.296;2024-02-23T16:53:07;1.17;;;0.20;;
48285;SDS011;34102;47.716;10.296;2024-02-23T16:55:34;0.93;;;0.15;;
48285;SDS011;34102;47.716;10.296;2024-02-23T16:58:03;1.00;;;0.20;;
48285;SDS011;34102;47.716;10.296;2024-02-23T17:00:32;1.58;;;0.17;;
48285;SDS011;34102;47.716;10.296;2024-02-23T17:03:00;1.33;;;0.30;;
48285;SDS011;34102;47.716;10.296;2024-02-23T17:05:28;0.85;;;0.10;;
48285;SDS011;34102;47.716;10.296;2024-02-23T17:07:55;0.35;;;0.10;;
48285;SDS011;34102;47.716;10.296;2024-02-23T17:10:21;0.77;;;0.17;;
48285;SDS011;34102;47.716;10.296;2024-02-23T17:12:46;0.93;;;0.20;;
48285;SDS011;34102;47.716;10.296;2024-02-23T17:15:18;1.60;;;0.20;;
48285;SDS011;34102;47.716;10.296;2024-02-23T17:17:43;0.40;;;0.10;;
48285;SDS011;34102;47.716;10.296;2024-02-23T17:20:10;2.35;;;0.57;;
48285;SDS011;34102;47.716;10.296;2024-02-23T17:22:43;1.02;;;0.20;;
48285;SDS011;34102;47.716;10.296;2024-02-23T17:25:09;0.68;;;0.22;;
48285;SDS011;34102;47.716;10.296;2024-02-23T17:27:39;2.25;;;0.38;;
48285;SDS011;34102;47.716;10.296;2024-02-23T17:30:06;2.40;;;0.55;;
48285;SDS011;34102;47.716;10.296;2024-02-23T17:32:33;1.25;;;0.40;;
48285;SDS011;34102;47.716;10.296;2024-02-23T17:34:59;0.93;;;0.30;;
48285;SDS011;34102;47.716;10.296;2024-02-23T17:37:31;1.30;;;0.50;;
48285;SDS011;34102;47.716;10.296;2024-02-23T17:40:00;0.80;;;0.40;;
48285;SDS011;34102;47.716;10.296;2024-02-23T17:42:27;1.23;;;0.50;;
48285;SDS011;34102;47.716;10.296;2024-02-23T17:44:54;1.25;;;0.45;;
48285;SDS011;34102;47.716;10.296;2024-02-23T17:47:21;2.67;;;0.20;;
48285;SDS011;34102;47.716;10.296;2024-02-23T17:49:48;2.38;;;0.70;;
48285;SDS011;34102;47.716;10.296;2024-02-23T17:52:14;2.60;;;0.52;;
48285;SDS011;34102;47.716;10.296;2024-02-23T17:54:39;2.00;;;0.40;;
48285;SDS011;34102;47.716;10.296;2024-02-23T17:57:05;2.28;;;0.70;;
48285;SDS011;34102;47.716;10.296;2024-02-23T17:59:30;0.82;;;0.30;;
48285;SDS011;34102;47.716;10.296;2024-02-23T18:02:02;1.58;;;0.43;;
48285;SDS011;34102;47.716;10.296;2024-02-23T18:04:29;1.77;;;0.40;;
48285;SDS011;34102;47.716;10.296;2024-02-23T18:06:54;1.30;;;0.43;;
48285;SDS011;34102;47.716;10.296;2024-02-23T18:09:20;1.13;;;0.30;;
48285;SDS011;34102;47.716;10.296;2024-02-23T18:11:48;1.27;;;0.30;;
48285;SDS011;34102;47.716;10.296;2024-02-23T18:14:14;1.30;;;0.47;;
48285;SDS011;34102;47.716;10.296;2024-02-23T18:16:47;2.20;;;0.50;;
48285;SDS011;34102;47.716;10.296;2024-02-23T18:19:18;1.23;;;0.50;;
48285;SDS011;34102;47.716;10.296;2024-02-23T18:21:48;5.35;;;0.90;;
48285;SDS011;34102;47.716;10.296;2024-02-23T18:24:13;2.20;;;0.75;;
48285;SDS011;34102;47.716;10.296;2024-02-23T18:26:48;3.78;;;1.30;;
48285;SDS011;34102;47.716;10.296;2024-02-23T18:29:22;2.58;;;0.57;;
48285;SDS011;34102;47.716;10.296;2024-02-23T18:31:53;3.75;;;1.10;;
48285;SDS011;34102;47.716;10.296;2024-02-23T18:34:22;1.40;;;0.60;;
48285;SDS011;34102;47.716;10.296;2024-02-23T18:36:54;2.33;;;0.70;;
48285;SDS011;34102;47.716;10.296;2024-02-23T18:39:21;3.00;;;1.25;;
48285;SDS011;34102;47.716;10.296;2024-02-23T18:41:49;2.92;;;0.93;;
48285;SDS011;34102;47.716;10.296;2024-02-23T18:44:15;3.28;;;1.83;;
48285;SDS011;34102;47.716;10.296;2024-02-23T18:46:42;3.67;;;1.70;;
48285;SDS011;34102;47.716;10.296;2024-02-23T18:49:10;2.58;;;1.40;;
48285;SDS011;34102;47.716;10.296;2024-02-23T18:51:37;1.83;;;0.73;;
48285;SDS011;34102;47.716;10.296;2024-02-23T18:54:06;1.15;;;0.40;;
48285;SDS011;34102;47.716;10.296;2024-02-23T18:56:31;4.82;;;0.93;;
48285;SDS011;34102;47.716;10.296;2024-02-23T18:59:04;2.25;;;0.35;;
48285;SDS011;34102;47.716;10.296;2024-02-23T19:01:29;1.00;;;0.30;;
48285;SDS011;34102;47.716;10.296;2024-02-23T19:03:56;0.75;;;0.28;;
48285;SDS011;34102;47.716;10.296;2024-02-23T19:06:24;1.17;;;0.22;;
48285;SDS011;34102;47.716;10.296;2024-02-23T19:08:49;0.77;;;0.20;;
48285;SDS011;34102;47.716;10.296;2024-02-23T19:11:20;1.02;;;0.30;;
48285;SDS011;34102;47.716;10.296;2024-02-23T19:13:47;0.77;;;0.20;;
48285;SDS011;34102;47.716;10.296;2024-02-23T19:16:12;1.10;;;0.30;;
48285;SDS011;34102;47.716;10.296;2024-02-23T19:18:40;0.52;;;0.20;;
48285;SDS011;34102;47.716;10.296;2024-02-23T19:21:06;1.23;;;0.10;;
48285;SDS011;34102;47.716;10.296;2024-02-23T19:23:31;0.75;;;0.20;;
48285;SDS011;34102;47.716;10.296;2024-02-23T19:26:01;1.00;;;0.30;;
48285;SDS011;34102;47.716;10.296;2024-02-23T19:28:27;2.35;;;0.90;;
48285;SDS011;34102;47.716;10.296;2024-02-23T19:31:18;1.33;;;0.60;;
48285;SDS011;34102;47.716;10.296;2024-02-23T19:34:16;0.88;;;0.20;;
48285;SDS011;34102;47.716;10.296;2024-02-23T19:37:09;1.17;;;0.30;;
48285;SDS011;34102;47.716;10.296;2024-02-23T19:40:02;1.10;;;0.20;;
48285;SDS011;34102;47.716;10.296;2024-02-23T19:42:53;0.80;;;0.20;;
48285;SDS011;34102;47.716;10.296;2024-02-23T19:45:47;0.47;;;0.20;;
48285;SDS011;34102;47.716;10.296;2024-02-23T19:48:39;1.35;;;0.35;;
48285;SDS011;34102;47.716;10.296;2024-02-23T19:51:30;1.98;;;0.35;;
48285;SDS011;34102;47.716;10.296;2024-02-23T19:54:21;1.83;;;0.70;;
48285;SDS011;34102;47.716;10.296;2024-02-23T19:57:13;1.90;;;0.70;;
48285;SDS011;34102;47.716;10.296;2024-02-23T20:00:04;1.67;;;0.40;;
48285;SDS011;34102;47.716;10.296;2024-02-23T20:02:55;2.25;;;0.28;;
48285;SDS011;34102;47.716;10.296;2024-02-23T20:05:46;1.77;;;0.40;;
48285;SDS011;34102;47.716;10.296;2024-02-23T20:08:38;1.77;;;0.80;;
48285;SDS011;34102;47.716;10.296;2024-02-23T20:11:28;3.55;;;1.25;;
48285;SDS011;34102;47.716;10.296;2024-02-23T20:14:18;1.45;;;0.63;;
48285;SDS011;34102;47.716;10.296;2024-02-23T20:17:10;1.73;;;0.28;;
48285;SDS011;34102;47.716;10.296;2024-02-23T20:20:01;0.88;;;0.30;;
48285;SDS011;34102;47.716;10.296;2024-02-23T20:22:51;1.45;;;0.50;;
48285;SDS011;34102;47.716;10.296;2024-02-23T20:25:45;2.08;;;0.15;;
48285;SDS011;34102;47.716;10.296;2024-02-23T20:28:36;0.50;;;0.20;;
48285;SDS011;34102;47.716;10.296;2024-02-23T20:31:28;2.35;;;0.98;;
48285;SDS011;34102;47.716;10.296;2024-02-23T20:34:20;8.45;;;3.00;;
48285;SDS011;34102;47.716;10.296;2024-02-23T20:37:10;6.28;;;3.83;;
48285;SDS011;34102;47.716;10.296;2024-02-23T20:40:01;3.47;;;1.80;;
48285;SDS011;34102;47.716;10.296;2024-02-23T20:42:54;1.67;;;0.43;;
48285;SDS011;34102;47.716;10.296;2024-02-23T20:45:45;1.80;;;0.20;;
48285;SDS011;34102;47.716;10.296;2024-02-23T20:48:37;1.20;;;0.28;;
48285;SDS011;34102;47.716;10.296;2024-02-23T20:51:27;0.80;;;0.30;;
48285;SDS011;34102;47.716;10.296;2024-02-23T20:54:18;0.47;;;0.25;;
48285;SDS011;34102;47.716;10.296;2024-02-23T20:57:09;0.95;;;0.20;;
48285;SDS011;34102;47.716;10.296;2024-02-23T21:00:00;2.38;;;0.13;;
48285;SDS011;34102;47.716;10.296;2024-02-23T21:02:50;1.05;;;0.10;;
48285;SDS011;34102;47.716;10.296;2024-02-23T21:05:41;1.25;;;0.20;;
48285;SDS011;34102;47.716;10.296;2024-02-23T21:08:34;2.97;;;0.25;;
48285;SDS011;34102;47.716;10.296;2024-02-23T21:11:28;0.70;;;0.10;;
48285;SDS011;34102;47.716;10.296;2024-02-23T21:17:06;1.25;;;0.20;;
48285;SDS011;34102;47.716;10.296;2024-02-23T21:19:58;0.80;;;0.20;;
48285;SDS011;34102;47.716;10.296;2024-02-23T21:22:49;6.05;;;0.60;;
48285;SDS011;34102;47.716;10.296;2024-02-23T21:25:40;2.78;;;0.45;;
48285;SDS011;34102;47.716;10.296;2024-02-23T21:28:31;1.17;;;0.40;;
48285;SDS011;34102;47.716;10.296;2024-02-23T21:31:24;2.88;;;0.50;;
48285;SDS011;34102;47.716;10.296;2024-02-23T21:34:19;1.13;;;0.30;;
48285;SDS011;34102;47.716;10.296;2024-02-23T21:37:09;1.52;;;0.55;;
48285;SDS011;34102;47.716;10.296;2024-02-23T21:40:02;1.42;;;0.57;;
48285;SDS011;34102;47.716;10.296;2024-02-23T21:42:54;3.08;;;0.95;;
48285;SDS011;34102;47.716;10.296;2024-02-23T21:45:48;3.33;;;1.48;;
48285;SDS011;34102;47.716;10.296;2024-02-23T21:48:42;1.52;;;0.60;;
48285;SDS011;34102;47.716;10.296;2024-02-23T21:51:32;1.02;;;0.40;;
48285;SDS011;34102;47.716;10.296;2024-02-23T21:57:34;2.53;;;0.20;;
48285;SDS011;34102;47.716;10.296;2024-02-23T22:00:25;1.23;;;0.40;;
48285;SDS011;34102;47.716;10.296;2024-02-23T22:03:15;1.23;;;0.10;;
48285;SDS011;34102;47.716;10.296;2024-02-23T22:06:08;0.22;;;0.08;;
48285;SDS011;34102;47.716;10.296;2024-02-23T22:08:59;0.55;;;0.20;;
48285;SDS011;34102;47.716;10.296;2024-02-23T22:11:49;0.90;;;0.30;;
48285;SDS011;34102;47.716;10.296;2024-02-23T22:14:40;0.88;;;0.13;;
48285;SDS011;34102;47.716;10.296;2024-02-23T22:17:30;0.65;;;0.10;;
48285;SDS011;34102;47.716;10.296;2024-02-23T22:20:20;0.45;;;0.10;;
48285;SDS011;34102;47.716;10.296;2024-02-23T22:23:11;1.05;;;0.20;;
48285;SDS011;34102;47.716;10.296;2024-02-23T22:26:02;0.40;;;0.10;;
48285;SDS011;34102;47.716;10.296;2024-02-23T22:28:53;0.68;;;0.20;;
48285;SDS011;34102;47.716;10.296;2024-02-23T22:31:46;0.70;;;0.20;;
48285;SDS011;34102;47.716;10.296;2024-02-23T22:34:39;1.03;;;0.13;;
48285;SDS011;34102;47.716;10.296;2024-02-23T22:37:30;0.73;;;0.13;;
48285;SDS011;34102;47.716;10.296;2024-02-23T22:40:22;0.38;;;0.10;;
48285;SDS011;34102;47.716;10.296;2024-02-23T22:43:14;0.95;;;0.10;;
48285;SDS011;34102;47.716;10.296;2024-02-23T22:46:04;2.20;;;0.40;;
48285;SDS011;34102;47.716;10.296;2024-02-23T22:48:58;0.70;;;0.15;;
48285;SDS011;34102;47.716;10.296;2024-02-23T22:51:53;0.63;;;0.10;;
48285;SDS011;34102;47.716;10.296;2024-02-23T22:54:47;2.50;;;0.10;;
48285;SDS011;34102;47.716;10.296;2024-02-23T22:57:37;1.63;;;0.32;;